Time;durP1;ratioP1;P1;durP2;ratioP2;P2;SDS_P1;SDS_P2;PMS_P1;PMS_P2;Temp;Humidity;BMP_temperature;BMP_pressure;BME280_temperature;BME280_humidity;BME280_pressure;Samples;Min_cycle;Max_cycle;Signal;HPM_P1;HPM_P2
2023/06/27 00:01:42;;;;;;;4.97;1.90;;;16.50;99.90;;;;;;4976885;28;20129;-34
2023/06/27 00:04:09;;;;;;;3.33;1.40;;;16.50;99.90;;;;;;4968219;28;20047;-34
2023/06/27 00:06:40;;;;;;;3.28;1.50;;;16.40;99.90;;;;;;4967077;28;20054;-34
2023/06/27 00:09:09;;;;;;;4.47;1.27;;;16.40;99.90;;;;;;4965164;28;20141;-34
2023/06/27 00:11:38;;;;;;;4.18;1.83;;;16.30;99.90;;;;;;4971312;28;20094;-34
2023/06/27 00:14:05;;;;;;;3.50;1.50;;;16.30;99.90;;;;;;4965633;28;20109;-34
2023/06/27 00:16:34;;;;;;;2.90;1.30;;;16.20;99.90;;;;;;4966552;28;20149;-34
2023/06/27 00:19:02;;;;;;;3.72;1.80;;;16.20;99.90;;;;;;4968040;28;20047;-34
2023/06/27 00:21:29;;;;;;;3.00;1.10;;;16.20;99.90;;;;;;4967827;28;20501;-34
2023/06/27 00:23:58;;;;;;;4.88;1.48;;;16.20;99.90;;;;;;4965288;28;20464;-34
2023/06/27 00:26:24;;;;;;;2.53;1.13;;;16.10;99.90;;;;;;4950412;28;20085;-34
2023/06/27 00:28:50;;;;;;;4.50;1.50;;;16.10;99.90;;;;;;4950022;28;20053;-34
2023/06/27 00:31:16;;;;;;;3.63;1.42;;;16.00;99.90;;;;;;4970152;28;20421;-34
2023/06/27 00:33:42;;;;;;;3.88;1.48;;;16.00;99.90;;;;;;4969987;28;20161;-34
2023/06/27 00:36:07;;;;;;;2.80;1.15;;;16.00;99.90;;;;;;4958709;28;20181;-34
2023/06/27 00:38:33;;;;;;;2.75;1.13;;;15.90;99.90;;;;;;4965970;28;20058;-34
2023/06/27 00:40:59;;;;;;;3.53;1.10;;;15.90;99.90;;;;;;4966676;28;20493;-34
2023/06/27 00:43:28;;;;;;;2.97;1.50;;;15.80;99.90;;;;;;4962987;28;20073;-34
2023/06/27 00:45:54;;;;;;;3.83;1.38;;;15.80;99.90;;;;;;4963456;28;20058;-34
2023/06/27 00:48:21;;;;;;;4.20;1.25;;;15.70;99.90;;;;;;4962191;28;20433;-34
2023/06/27 00:50:48;;;;;;;2.67;1.40;;;15.60;99.90;;;;;;4965402;28;20559;-34
2023/06/27 00:53:14;;;;;;;3.85;1.33;;;15.50;99.90;;;;;;4963509;28;20051;-34
2023/06/27 00:55:41;;;;;;;4.88;1.77;;;15.40;99.90;;;;;;4955243;28;20042;-34
2023/06/27 00:58:10;;;;;;;3.53;1.70;;;15.40;99.90;;;;;;4948555;28;20051;-34
2023/06/27 01:00:36;;;;;;;3.97;1.50;;;15.40;99.90;;;;;;4965099;28;20051;-34
2023/06/27 01:03:05;;;;;;;5.10;1.80;;;15.30;99.90;;;;;;4965230;28;20125;-34
2023/06/27 01:05:32;;;;;;;4.28;1.92;;;15.20;99.90;;;;;;4965762;28;20058;-34
2023/06/27 01:08:11;;;;;;;3.20;1.60;;;15.20;99.90;;;;;;4964876;28;20047;-34
2023/06/27 01:10:46;;;;;;;5.90;1.90;;;15.30;99.90;;;;;;4961831;28;20051;-34
2023/06/27 01:13:20;;;;;;;3.80;1.80;;;15.20;99.90;;;;;;4960385;28;20090;-34
2023/06/27 01:15:46;;;;;;;4.78;1.73;;;15.20;99.90;;;;;;4962721;28;20062;-34
2023/06/27 01:18:12;;;;;;;5.05;1.88;;;15.20;99.90;;;;;;4963266;28;20058;-34
2023/06/27 01:20:43;;;;;;;2.50;1.73;;;15.20;99.90;;;;;;4963418;28;20137;-34
2023/06/27 01:23:30;;;;;;;6.97;2.13;;;15.10;99.90;;;;;;4962018;28;20047;-34
2023/06/27 01:26:09;;;;;;;4.63;2.13;;;15.10;99.90;;;;;;4963423;28;20058;-34
2023/06/27 01:28:36;;;;;;;7.70;2.10;;;15.10;99.90;;;;;;4963514;28;20043;-34
2023/06/27 01:31:03;;;;;;;4.45;1.88;;;15.10;99.90;;;;;;4965026;28;20515;-34
2023/06/27 01:33:39;;;;;;;3.13;1.95;;;15.10;99.90;;;;;;4947000;28;20090;-34
2023/06/27 01:36:13;;;;;;;4.43;2.30;;;15.10;99.90;;;;;;4962353;28;20054;-34
2023/06/27 01:38:50;;;;;;;4.85;2.17;;;15.10;99.90;;;;;;4958121;28;20054;-34
2023/06/27 01:41:20;;;;;;;5.32;2.38;;;15.00;99.90;;;;;;4958362;28;20141;-34
2023/06/27 01:43:48;;;;;;;3.95;1.55;;;14.90;99.90;;;;;;4960599;28;20042;-34
2023/06/27 01:46:14;;;;;;;5.13;2.30;;;14.90;99.90;;;;;;4960436;28;20055;-34
2023/06/27 01:48:40;;;;;;;5.15;2.10;;;14.90;99.90;;;;;;4955522;28;20055;-34
2023/06/27 01:51:09;;;;;;;5.43;2.75;;;15.00;99.90;;;;;;4950147;28;20429;-34
2023/06/27 01:53:36;;;;;;;6.22;2.83;;;15.00;99.90;;;;;;4962305;28;20505;-34
2023/06/27 01:56:03;;;;;;;6.00;2.20;;;15.00;99.90;;;;;;4962784;28;20080;-34
2023/06/27 01:58:29;;;;;;;5.00;2.13;;;15.00;99.90;;;;;;4960636;28;20469;-34
2023/06/27 02:00:55;;;;;;;5.32;2.33;;;14.90;99.90;;;;;;4969442;28;20071;-34
2023/06/27 02:03:21;;;;;;;4.93;2.60;;;14.90;99.90;;;;;;4966340;28;20778;-34
2023/06/27 02:05:46;;;;;;;3.60;2.10;;;14.90;99.90;;;;;;4969436;28;20055;-34
2023/06/27 02:08:12;;;;;;;6.00;2.13;;;14.90;99.90;;;;;;4965932;28;20464;-34
2023/06/27 02:10:37;;;;;;;7.95;2.78;;;14.90;99.90;;;;;;4964191;28;20038;-34
2023/06/27 02:13:06;;;;;;;4.53;2.35;;;14.90;99.90;;;;;;4967784;28;20059;-34
2023/06/27 02:15:32;;;;;;;4.47;2.17;;;14.80;99.90;;;;;;4961925;28;20054;-34
2023/06/27 02:17:59;;;;;;;4.10;2.20;;;14.80;99.90;;;;;;4968552;28;20046;-34
2023/06/27 02:20:24;;;;;;;7.15;2.80;;;14.80;99.90;;;;;;4966992;28;20050;-34
2023/06/27 02:22:50;;;;;;;6.70;2.50;;;14.70;99.90;;;;;;4966363;28;20499;-35
2023/06/27 02:25:15;;;;;;;5.65;2.55;;;14.70;99.90;;;;;;4968231;28;20541;-34
2023/06/27 02:27:41;;;;;;;5.70;2.70;;;14.70;99.90;;;;;;4968692;28;20219;-34
2023/06/27 02:30:07;;;;;;;5.35;2.72;;;14.70;99.90;;;;;;4966046;28;20510;-34
2023/06/27 02:32:33;;;;;;;5.72;2.63;;;14.70;99.90;;;;;;4968358;28;20062;-34
2023/06/27 02:34:58;;;;;;;4.72;2.63;;;14.60;99.90;;;;;;4966804;28;20051;-34
2023/06/27 02:37:24;;;;;;;6.57;2.65;;;14.60;99.90;;;;;;4963512;28;20054;-34
2023/06/27 02:39:52;;;;;;;4.93;2.55;;;14.60;99.90;;;;;;4965236;28;20042;-34
2023/06/27 02:42:18;;;;;;;7.85;3.17;;;14.60;99.90;;;;;;4961562;28;20055;-34
2023/06/27 02:44:43;;;;;;;8.75;2.38;;;14.60;99.90;;;;;;4966143;28;20054;-34
2023/06/27 02:47:09;;;;;;;6.70;2.75;;;14.50;99.90;;;;;;4963263;28;20054;-34
2023/06/27 02:49:35;;;;;;;6.72;3.38;;;14.50;99.90;;;;;;4966088;28;20558;-34
2023/06/27 02:52:00;;;;;;;5.18;2.40;;;14.50;99.90;;;;;;4947489;28;20082;-34
2023/06/27 02:54:26;;;;;;;5.55;2.60;;;14.60;99.90;;;;;;4964621;28;20050;-34
2023/06/27 02:56:51;;;;;;;8.70;3.30;;;14.60;99.90;;;;;;4965087;28;20491;-34
2023/06/27 02:59:17;;;;;;;7.85;3.58;;;14.60;99.90;;;;;;4967264;28;20061;-34
2023/06/27 03:01:43;;;;;;;6.07;2.63;;;14.60;99.90;;;;;;4962103;28;20047;-34
2023/06/27 03:04:11;;;;;;;7.25;3.03;;;14.60;99.90;;;;;;4963803;28;20142;-34
2023/06/27 03:06:37;;;;;;;7.25;3.70;;;14.60;99.90;;;;;;4961217;28;20105;-34
2023/06/27 03:09:02;;;;;;;5.32;2.90;;;14.50;99.90;;;;;;4955472;28;20544;-34
2023/06/27 03:11:28;;;;;;;6.95;2.78;;;14.50;99.90;;;;;;4931854;28;20059;-34
2023/06/27 03:13:54;;;;;;;7.57;2.97;;;14.50;99.90;;;;;;4941968;28;20066;-34
2023/06/27 03:16:20;;;;;;;6.22;2.72;;;14.50;99.90;;;;;;4963930;28;20070;-34
2023/06/27 03:18:46;;;;;;;4.20;2.25;;;14.60;99.90;;;;;;4969271;28;20462;-34
2023/06/27 03:21:12;;;;;;;5.60;3.22;;;14.60;99.90;;;;;;4963758;28;20520;-34
2023/06/27 03:23:37;;;;;;;6.57;2.72;;;14.70;99.90;;;;;;4967261;28;20059;-34
2023/06/27 03:26:03;;;;;;;7.38;3.25;;;14.70;99.90;;;;;;4965504;28;20058;-34
2023/06/27 03:28:28;;;;;;;6.97;3.53;;;14.70;99.90;;;;;;4968487;28;20054;-34
2023/06/27 03:30:54;;;;;;;6.80;3.30;;;14.70;99.90;;;;;;4965840;28;20047;-34
2023/06/27 03:33:20;;;;;;;5.90;3.53;;;14.70;99.90;;;;;;4964774;28;20061;-34
2023/06/27 03:35:45;;;;;;;6.43;3.92;;;14.80;99.90;;;;;;4962314;28;20051;-34
2023/06/27 03:38:11;;;;;;;8.57;3.85;;;14.80;99.90;;;;;;4966359;28;20051;-34
2023/06/27 03:40:37;;;;;;;7.60;4.05;;;14.80;99.90;;;;;;4963093;28;20047;-34
2023/06/27 03:43:02;;;;;;;8.30;3.97;;;14.80;99.90;;;;;;4966256;28;20129;-34
2023/06/27 03:45:28;;;;;;;9.77;4.97;;;14.80;99.90;;;;;;4963482;28;20058;-34
2023/06/27 03:47:54;;;;;;;6.88;3.75;;;14.70;99.90;;;;;;4966801;28;20549;-34
2023/06/27 03:50:19;;;;;;;10.80;3.97;;;14.70;99.90;;;;;;4963342;28;20444;-34
2023/06/27 03:52:45;;;;;;;7.20;4.22;;;14.70;99.90;;;;;;4965894;28;20038;-34
2023/06/27 03:55:11;;;;;;;6.22;3.10;;;14.70;99.90;;;;;;4967435;28;20054;-34
2023/06/27 03:57:36;;;;;;;5.43;3.42;;;14.60;99.90;;;;;;4969055;28;20058;-34
2023/06/27 04:00:07;;;;;;;6.75;3.28;;;14.70;99.90;;;;;;4967184;28;20507;-34
2023/06/27 04:02:32;;;;;;;9.13;4.28;;;14.70;99.90;;;;;;4963251;28;20505;-34
2023/06/27 04:04:58;;;;;;;8.13;3.72;;;14.80;99.90;;;;;;4963677;28;20068;-34
2023/06/27 04:07:24;;;;;;;5.90;3.17;;;14.80;99.90;;;;;;4964756;28;20567;-34
2023/06/27 04:09:49;;;;;;;11.88;3.85;;;14.90;99.90;;;;;;4966259;28;20047;-34
2023/06/27 04:12:15;;;;;;;6.72;3.42;;;14.90;99.90;;;;;;4961135;28;20400;-34
2023/06/27 04:14:41;;;;;;;5.40;3.25;;;14.90;99.90;;;;;;4950447;28;20404;-34
2023/06/27 04:17:06;;;;;;;7.03;3.30;;;15.00;99.90;;;;;;4960893;28;20449;-34
2023/06/27 04:19:32;;;;;;;10.77;3.35;;;15.00;99.90;;;;;;4951742;28;20069;-34
2023/06/27 04:21:58;;;;;;;6.32;3.28;;;15.10;99.90;;;;;;4962472;28;20055;-34
2023/06/27 04:24:23;;;;;;;6.90;2.92;;;15.10;99.90;;;;;;4970152;28;20129;-34
2023/06/27 04:26:49;;;;;;;5.85;3.00;;;15.20;99.90;;;;;;4969053;28;20073;-34
2023/06/27 04:29:15;;;;;;;5.90;3.05;;;15.20;99.90;;;;;;4963758;28;20062;-34
2023/06/27 04:31:40;;;;;;;6.78;3.35;;;15.30;99.90;;;;;;4967063;28;20061;-34
2023/06/27 04:34:08;;;;;;;6.50;3.05;;;15.30;99.90;;;;;;4965406;28;20054;-34
2023/06/27 04:36:36;;;;;;;10.75;3.40;;;15.30;99.90;;;;;;4962233;28;20225;-34
2023/06/27 04:39:03;;;;;;;7.90;3.50;;;15.40;99.90;;;;;;4969291;28;20428;-34
2023/06/27 04:41:29;;;;;;;5.47;2.95;;;15.40;99.90;;;;;;4965302;28;20055;-34
2023/06/27 04:43:56;;;;;;;9.70;3.25;;;15.50;99.90;;;;;;4967107;28;20514;-34
2023/06/27 04:46:22;;;;;;;12.48;3.85;;;15.60;99.90;;;;;;4965665;28;20046;-34
2023/06/27 04:48:48;;;;;;;7.47;2.95;;;15.60;99.90;;;;;;4965317;28;20077;-34
2023/06/27 04:51:13;;;;;;;7.25;4.00;;;15.60;99.90;;;;;;4962720;28;20397;-34
2023/06/27 04:53:40;;;;;;;7.50;3.78;;;15.70;99.90;;;;;;4963084;28;20066;-34
2023/06/27 04:56:06;;;;;;;10.10;3.13;;;15.70;99.90;;;;;;4965522;28;20050;-34
2023/06/27 04:58:32;;;;;;;7.72;3.67;;;15.80;99.90;;;;;;4965926;28;20386;-34
2023/06/27 05:00:57;;;;;;;4.72;2.25;;;15.90;99.90;;;;;;4972590;28;20508;-34
2023/06/27 05:03:23;;;;;;;5.88;3.40;;;15.90;99.90;;;;;;4961261;28;20069;-33
2023/06/27 05:05:49;;;;;;;8.85;4.15;;;16.00;99.90;;;;;;4964030;28;20059;-34
2023/06/27 05:08:14;;;;;;;8.35;3.28;;;16.10;99.90;;;;;;4960656;28;20511;-34
2023/06/27 05:10:40;;;;;;;6.90;2.97;;;16.10;99.90;;;;;;4966654;28;20895;-34
2023/06/27 05:13:06;;;;;;;9.73;3.70;;;16.20;99.90;;;;;;4964628;28;20054;-34
2023/06/27 05:15:31;;;;;;;7.35;3.85;;;16.30;99.90;;;;;;4967730;28;20046;-34
2023/06/27 05:18:06;;;;;;;6.80;3.17;;;16.40;99.90;;;;;;4966850;28;20126;-34
2023/06/27 05:20:31;;;;;;;5.85;3.25;;;16.50;99.90;;;;;;4966763;28;20550;-34
2023/06/27 05:22:57;;;;;;;5.80;2.90;;;16.60;99.90;;;;;;4962647;28;20177;-34
2023/06/27 05:25:23;;;;;;;4.35;2.30;;;16.70;99.90;;;;;;4962163;28;20054;-34
2023/06/27 05:27:48;;;;;;;7.18;2.88;;;16.80;99.90;;;;;;4962813;28;20054;-34
2023/06/27 05:30:14;;;;;;;5.70;2.75;;;17.00;99.90;;;;;;4964815;28;20124;-34
2023/06/27 05:32:40;;;;;;;6.72;2.22;;;17.10;99.90;;;;;;4965122;28;20038;-34
2023/06/27 05:35:07;;;;;;;7.18;2.88;;;17.20;99.90;;;;;;4965154;28;20058;-34
2023/06/27 05:37:32;;;;;;;6.22;2.33;;;17.30;99.90;;;;;;4967212;28;20057;-34
2023/06/27 05:39:58;;;;;;;3.83;1.80;;;17.40;99.90;;;;;;4961023;28;20046;-34
2023/06/27 05:42:24;;;;;;;5.03;1.88;;;17.60;99.90;;;;;;4955612;28;20091;-34
2023/06/27 05:44:49;;;;;;;3.22;1.80;;;17.80;99.90;;;;;;4962412;28;20141;-34
2023/06/27 05:47:16;;;;;;;7.63;2.35;;;18.00;99.90;;;;;;4961070;28;20051;-34
2023/06/27 05:49:41;;;;;;;4.13;2.03;;;18.10;99.90;;;;;;4960412;28;20062;-34
2023/06/27 05:52:07;;;;;;;2.90;1.52;;;18.30;99.90;;;;;;4959584;28;20105;-34
2023/06/27 05:54:33;;;;;;;3.90;0.88;;;18.40;99.90;;;;;;4957203;28;20138;-34
2023/06/27 05:56:59;;;;;;;3.30;0.77;;;18.60;99.90;;;;;;4959596;28;20189;-34
2023/06/27 05:59:24;;;;;;;2.90;1.05;;;18.80;99.90;;;;;;4934097;28;20066;-34
2023/06/27 06:01:50;;;;;;;3.28;1.05;;;18.90;99.90;;;;;;4952543;28;20112;-34
2023/06/27 06:04:16;;;;;;;6.07;0.60;;;19.10;99.90;;;;;;4955289;28;20051;-34
2023/06/27 06:06:43;;;;;;;4.55;0.60;;;19.20;99.90;;;;;;4957912;28;20600;-34
2023/06/27 06:09:09;;;;;;;5.55;0.50;;;19.30;99.90;;;;;;4956422;28;20090;-34
2023/06/27 06:11:34;;;;;;;5.45;0.70;;;19.30;99.90;;;;;;4957975;28;20141;-34
2023/06/27 06:14:04;;;;;;;3.63;0.93;;;19.40;99.90;;;;;;4960506;28;20054;-34
2023/06/27 06:16:33;;;;;;;1.65;0.50;;;19.50;99.90;;;;;;4959755;28;20054;-34
2023/06/27 06:19:00;;;;;;;1.98;0.40;;;19.60;99.90;;;;;;4961525;28;20524;-34
2023/06/27 06:21:27;;;;;;;5.30;1.10;;;19.70;99.90;;;;;;4970327;28;20181;-34
2023/06/27 06:23:53;;;;;;;2.03;0.40;;;19.70;99.90;;;;;;4966440;28;20047;-34
2023/06/27 06:26:18;;;;;;;6.28;0.70;;;19.70;99.90;;;;;;4968814;28;20109;-34
2023/06/27 06:28:44;;;;;;;3.05;0.50;;;19.70;99.90;;;;;;4969345;28;20058;-34
2023/06/27 06:31:16;;;;;;;1.80;0.50;;;19.60;99.90;;;;;;4967322;28;20471;-35
2023/06/27 06:33:44;;;;;;;4.90;0.60;;;19.50;99.90;;;;;;4963509;28;20051;-34
2023/06/27 06:36:10;;;;;;;2.05;0.40;;;19.50;99.90;;;;;;4967687;28;20583;-34
2023/06/27 06:38:36;;;;;;;2.45;0.43;;;19.50;99.90;;;;;;4963117;28;20509;-34
2023/06/27 06:41:02;;;;;;;3.05;0.57;;;19.50;99.90;;;;;;4966369;28;20058;-34
2023/06/27 06:43:28;;;;;;;4.10;0.40;;;19.40;99.90;;;;;;4963709;28;20050;-34
2023/06/27 06:45:54;;;;;;;2.33;0.60;;;19.40;99.90;;;;;;4967925;28;20058;-34
2023/06/27 06:48:20;;;;;;;3.83;0.30;;;19.30;99.90;;;;;;4968560;28;20066;-34
2023/06/27 06:50:47;;;;;;;4.35;0.60;;;19.30;99.90;;;;;;4961563;28;20492;-34
2023/06/27 06:53:13;;;;;;;2.15;0.35;;;19.30;99.90;;;;;;4965133;28;20046;-34
2023/06/27 06:55:39;;;;;;;2.38;0.40;;;19.30;99.90;;;;;;4966574;28;20101;-34
2023/06/27 06:58:04;;;;;;;3.22;0.50;;;19.30;99.90;;;;;;4972422;28;20620;-34
2023/06/27 07:00:30;;;;;;;1.15;0.30;;;19.30;99.90;;;;;;4973142;28;20077;-34
2023/06/27 07:02:56;;;;;;;1.75;0.57;;;19.30;99.90;;;;;;4965000;28;20066;-34
2023/06/27 07:05:22;;;;;;;8.13;0.45;;;19.40;99.90;;;;;;4968907;28;20141;-35
2023/06/27 07:07:48;;;;;;;4.43;0.50;;;19.40;99.90;;;;;;4953918;28;20529;-34
2023/06/27 07:10:13;;;;;;;5.43;0.98;;;19.50;99.90;;;;;;4963972;28;20089;-35
2023/06/27 07:12:40;;;;;;;1.70;0.43;;;19.50;99.90;;;;;;4966076;28;20535;-35
2023/06/27 07:15:06;;;;;;;3.47;0.45;;;19.50;99.90;;;;;;4969014;28;20069;-35
2023/06/27 07:17:35;;;;;;;3.50;0.85;;;19.50;99.90;;;;;;4971060;28;20497;-35
2023/06/27 07:20:01;;;;;;;3.03;0.43;;;19.50;99.90;;;;;;4964477;28;20394;-34
2023/06/27 07:22:27;;;;;;;1.52;0.30;;;19.40;99.90;;;;;;4971139;28;20058;-34
2023/06/27 07:24:52;;;;;;;3.13;0.40;;;19.40;99.90;;;;;;4967457;28;20051;-34
2023/06/27 07:27:18;;;;;;;1.40;0.40;;;19.50;99.90;;;;;;4975952;28;20065;-34
2023/06/27 07:29:44;;;;;;;2.28;0.45;;;19.40;99.90;;;;;;4971274;28;20472;-34
2023/06/27 07:32:11;;;;;;;2.90;0.30;;;19.40;99.90;;;;;;4972863;28;20058;-34
2023/06/27 07:34:37;;;;;;;5.10;0.50;;;19.40;99.90;;;;;;4951363;28;20051;-34
2023/06/27 07:37:03;;;;;;;3.15;0.45;;;19.40;99.90;;;;;;4966974;28;20517;-34
2023/06/27 07:39:28;;;;;;;3.10;0.50;;;19.40;99.90;;;;;;4966845;28;20069;-34
2023/06/27 07:41:54;;;;;;;3.00;0.40;;;19.40;99.90;;;;;;4936268;28;20050;-34
2023/06/27 07:44:20;;;;;;;2.55;0.47;;;19.50;99.90;;;;;;4952950;28;20845;-34
2023/06/27 07:46:46;;;;;;;1.88;0.40;;;19.60;99.90;;;;;;4951495;28;20142;-34
2023/06/27 07:49:11;;;;;;;0.80;0.38;;;19.70;99.90;;;;;;4965157;28;20138;-34
2023/06/27 07:51:37;;;;;;;2.42;0.40;;;19.70;99.90;;;;;;4956832;28;20120;-34
2023/06/27 07:54:03;;;;;;;1.58;0.40;;;19.80;99.90;;;;;;4964101;28;20417;-34
2023/06/27 07:56:29;;;;;;;4.25;0.60;;;19.80;99.90;;;;;;4968000;28;20055;-34
2023/06/27 07:58:55;;;;;;;1.58;0.40;;;19.90;99.90;;;;;;4959766;28;20149;-34
2023/06/27 08:01:21;;;;;;;1.48;0.40;;;19.90;99.90;;;;;;4968858;28;20539;-34
2023/06/27 08:03:46;;;;;;;5.38;0.60;;;20.00;99.90;;;;;;4964040;28;20043;-34
2023/06/27 08:06:12;;;;;;;5.05;0.60;;;20.00;99.90;;;;;;4968586;28;20409;-34
2023/06/27 08:08:38;;;;;;;4.45;0.60;;;20.00;99.90;;;;;;4968203;28;20070;-34
2023/06/27 08:11:04;;;;;;;5.10;0.63;;;20.10;99.90;;;;;;4964400;28;20185;-34
2023/06/27 08:13:30;;;;;;;2.85;0.40;;;20.10;99.90;;;;;;4951618;28;20505;-34
2023/06/27 08:15:55;;;;;;;3.35;0.52;;;20.20;99.90;;;;;;4971369;28;20055;-34
2023/06/27 08:18:21;;;;;;;2.63;0.50;;;20.20;99.90;;;;;;4971559;28;20070;-34
2023/06/27 08:20:47;;;;;;;2.97;0.40;;;20.20;99.90;;;;;;4950690;28;20047;-34
2023/06/27 08:23:13;;;;;;;1.08;0.20;;;20.30;99.90;;;;;;4968590;28;20054;-34
2023/06/27 08:25:38;;;;;;;2.17;0.40;;;20.30;99.90;;;;;;4976301;28;20141;-34
2023/06/27 08:28:04;;;;;;;2.35;0.40;;;20.40;99.90;;;;;;4970972;28;20531;-34
2023/06/27 08:30:31;;;;;;;3.47;0.52;;;20.30;99.90;;;;;;4970401;28;20068;-34
2023/06/27 08:32:56;;;;;;;2.90;0.40;;;20.40;99.90;;;;;;4969078;28;20094;-34
2023/06/27 08:35:22;;;;;;;4.13;0.40;;;20.40;99.90;;;;;;4971007;28;20047;-34
2023/06/27 08:37:48;;;;;;;1.92;0.30;;;20.50;99.90;;;;;;4961365;28;20062;-34
2023/06/27 08:40:20;;;;;;;0.82;0.22;;;20.50;99.90;;;;;;4965307;28;20054;-34
2023/06/27 08:42:45;;;;;;;1.90;0.28;;;20.60;99.90;;;;;;4966455;28;20137;-34
2023/06/27 08:45:11;;;;;;;3.83;0.40;;;20.60;99.90;;;;;;4967030;28;20090;-34
2023/06/27 08:47:41;;;;;;;5.47;0.50;;;20.60;99.90;;;;;;4969935;28;20062;-34
2023/06/27 08:50:11;;;;;;;1.60;0.40;;;20.60;99.90;;;;;;4968730;28;20061;-34
2023/06/27 08:52:42;;;;;;;2.20;0.47;;;20.70;99.90;;;;;;4971973;28;20058;-34
2023/06/27 08:55:20;;;;;;;0.83;0.30;;;20.70;99.90;;;;;;4969823;28;20080;-34
2023/06/27 08:57:46;;;;;;;1.52;0.20;;;20.70;99.90;;;;;;4959753;28;20054;-34
2023/06/27 09:00:19;;;;;;;1.67;0.20;;;20.80;99.90;;;;;;4966623;28;20054;-34
2023/06/27 09:02:46;;;;;;;2.35;0.35;;;20.70;99.90;;;;;;4965937;28;20047;-34
2023/06/27 09:05:12;;;;;;;2.03;0.43;;;20.60;99.90;;;;;;4969996;28;20467;-34
2023/06/27 09:07:38;;;;;;;3.97;0.68;;;20.60;99.90;;;;;;4969611;28;20050;-34
2023/06/27 09:10:04;;;;;;;2.53;0.50;;;20.50;99.90;;;;;;4956236;28;20077;-34
2023/06/27 09:12:32;;;;;;;3.65;0.90;;;20.50;99.90;;;;;;4946692;28;20055;-34
2023/06/27 09:14:58;;;;;;;3.83;0.30;;;20.60;99.90;;;;;;4947533;28;20043;-34
2023/06/27 09:17:24;;;;;;;3.25;0.40;;;20.50;99.90;;;;;;4948476;28;20394;-34
2023/06/27 09:19:49;;;;;;;3.03;0.28;;;20.70;99.90;;;;;;4949614;28;20461;-34
2023/06/27 09:22:17;;;;;;;2.10;0.38;;;20.80;99.90;;;;;;4945376;28;20501;-34
2023/06/27 09:24:43;;;;;;;3.35;0.88;;;20.80;99.90;;;;;;4949745;28;20051;-34
2023/06/27 09:27:28;;;;;;;0.95;0.20;;;20.90;99.90;;;;;;4948564;28;20410;-34
2023/06/27 09:29:59;;;;;;;2.40;0.50;;;21.00;99.90;;;;;;4949465;28;20047;-34
2023/06/27 09:32:24;;;;;;;3.95;0.40;;;21.00;99.90;;;;;;4948326;28;20110;-34
2023/06/27 09:34:50;;;;;;;1.17;0.22;;;21.00;99.90;;;;;;4932506;28;20565;-33
2023/06/27 09:37:19;;;;;;;2.45;0.30;;;21.10;99.90;;;;;;4947667;28;20078;-34
2023/06/27 09:39:45;;;;;;;2.55;0.40;;;21.20;99.90;;;;;;4947091;28;20055;-34
2023/06/27 09:42:11;;;;;;;5.82;0.50;;;21.40;99.90;;;;;;4946996;28;20110;-34
2023/06/27 09:44:36;;;;;;;2.65;0.40;;;21.50;99.90;;;;;;4949863;28;20073;-34
2023/06/27 09:47:04;;;;;;;1.58;0.47;;;21.70;99.90;;;;;;4947591;28;20059;-34
2023/06/27 09:49:30;;;;;;;3.92;0.40;;;21.80;99.90;;;;;;4950166;28;20146;-34
2023/06/27 09:51:56;;;;;;;2.13;0.63;;;21.90;99.90;;;;;;4929453;29;20058;-34
2023/06/27 09:54:22;;;;;;;1.08;0.40;;;22.00;99.90;;;;;;4948319;28;20051;-34
2023/06/27 09:56:52;;;;;;;1.60;0.30;;;22.20;99.90;;;;;;4954670;28;20085;-34
2023/06/27 09:59:21;;;;;;;2.45;0.30;;;22.20;99.90;;;;;;4957704;28;20138;-34
2023/06/27 10:01:49;;;;;;;1.48;0.30;;;22.30;99.90;;;;;;4954193;28;20480;-34
2023/06/27 10:04:15;;;;;;;1.52;0.22;;;22.50;99.90;;;;;;4950018;28;20413;-34
2023/06/27 10:06:41;;;;;;;1.65;0.30;;;22.50;99.90;;;;;;4948609;28;20098;-34
2023/06/27 10:09:07;;;;;;;2.45;0.50;;;22.50;99.90;;;;;;4946025;28;20079;-34
2023/06/27 10:11:35;;;;;;;3.65;0.30;;;22.40;99.90;;;;;;4962329;28;20051;-35
2023/06/27 10:14:01;;;;;;;2.38;0.30;;;22.40;99.90;;;;;;4967853;28;20488;-34
2023/06/27 10:16:28;;;;;;;1.50;0.38;;;22.30;99.90;;;;;;4948956;28;20757;-35
2023/06/27 10:18:55;;;;;;;5.30;0.63;;;22.40;99.90;;;;;;4964431;28;20179;-35
2023/06/27 10:21:24;;;;;;;2.72;0.47;;;22.50;99.90;;;;;;4968464;28;20504;-35
2023/06/27 10:23:53;;;;;;;1.77;0.50;;;22.70;99.90;;;;;;4974327;28;20050;-34
2023/06/27 10:26:26;;;;;;;1.30;0.30;;;22.80;99.90;;;;;;4971530;28;20058;-35
2023/06/27 10:28:51;;;;;;;;;;;22.80;99.90;;;;;;4968557;28;20055;-34
2023/06/27 10:31:45;;;;;;;3.85;0.40;;;23.00;99.90;;;;;;4974160;28;19933;-34
2023/06/27 10:34:21;;;;;;;6.82;0.52;;;23.10;99.90;;;;;;4962318;28;20145;-34
2023/06/27 10:36:55;;;;;;;1.85;0.40;;;23.20;99.90;;;;;;4953676;28;20137;-35
2023/06/27 10:39:31;;;;;;;2.40;0.40;;;23.30;99.90;;;;;;4970263;28;20054;-35
2023/06/27 10:42:03;;;;;;;3.30;0.60;;;23.20;99.90;;;;;;4963285;28;20059;-35
2023/06/27 10:44:30;;;;;;;1.20;0.30;;;22.90;99.90;;;;;;4944699;28;20138;-35
2023/06/27 10:47:16;;;;;;;2.35;0.40;;;22.80;99.90;;;;;;4967782;28;20063;-35
2023/06/27 10:49:46;;;;;;;1.80;0.40;;;22.70;99.90;;;;;;4962909;28;20067;-35
2023/06/27 10:52:23;;;;;;;2.53;0.60;;;22.60;99.90;;;;;;4970967;28;20050;-35
2023/06/27 10:55:13;;;;;;;3.35;0.40;;;22.50;99.90;;;;;;4972949;28;20051;-35
2023/06/27 10:57:40;;;;;;;1.83;0.30;;;22.50;99.90;;;;;;4966749;28;20062;-35
2023/06/27 11:00:15;;;;;;;4.47;0.75;;;22.40;99.90;;;;;;4974300;28;20137;-35
2023/06/27 11:02:45;;;;;;;1.98;0.50;;;22.30;99.90;;;;;;4970707;28;20059;-36
2023/06/27 11:05:18;;;;;;;2.83;0.30;;;22.30;99.90;;;;;;4977758;28;20484;-35
2023/06/27 11:07:53;;;;;;;1.98;0.30;;;22.20;99.90;;;;;;4969745;28;20086;-35
2023/06/27 11:10:26;;;;;;;3.45;0.45;;;22.30;99.90;;;;;;4965760;28;20076;-35
2023/06/27 11:13:15;;;;;;;1.80;0.32;;;22.40;99.90;;;;;;4970919;28;20062;-36
2023/06/27 11:15:43;;;;;;;2.47;0.50;;;22.40;99.90;;;;;;4969201;28;20057;-35
2023/06/27 11:18:10;;;;;;;3.42;0.40;;;22.50;99.90;;;;;;4966453;28;20666;-34
2023/06/27 11:20:36;;;;;;;5.88;0.60;;;22.80;99.90;;;;;;4971836;28;20077;-35
2023/06/27 11:23:03;;;;;;;3.60;0.50;;;23.00;99.90;;;;;;4954223;28;20432;-35
2023/06/27 11:25:45;;;;;;;1.45;0.30;;;23.10;99.90;;;;;;4972284;28;20512;-35
2023/06/27 11:28:12;;;;;;;1.80;0.40;;;23.10;99.90;;;;;;4963613;28;20146;-35
2023/06/27 11:30:39;;;;;;;3.03;0.52;;;22.90;99.90;;;;;;4974305;28;20042;-35
2023/06/27 11:33:06;;;;;;;3.90;0.82;;;22.70;99.90;;;;;;4970559;28;20548;-35
2023/06/27 11:35:32;;;;;;;3.38;0.50;;;22.70;99.90;;;;;;4976197;28;20054;-35
2023/06/27 11:37:59;;;;;;;2.45;0.45;;;22.90;99.90;;;;;;4975113;28;20050;-34
2023/06/27 11:40:25;;;;;;;3.53;0.40;;;22.90;99.90;;;;;;4975234;28;20440;-35
2023/06/27 11:42:58;;;;;;;3.17;0.45;;;22.80;99.90;;;;;;4968156;28;20507;-35
2023/06/27 11:45:26;;;;;;;1.02;0.40;;;22.80;99.90;;;;;;4969151;28;20058;-35
2023/06/27 11:47:53;;;;;;;2.10;0.40;;;22.80;99.90;;;;;;4969776;28;20053;-35
2023/06/27 11:50:19;;;;;;;1.90;0.68;;;22.70;99.90;;;;;;4971732;28;20173;-35
2023/06/27 11:52:47;;;;;;;1.73;0.32;;;22.60;99.90;;;;;;4972242;28;20050;-35
2023/06/27 11:55:13;;;;;;;1.33;0.30;;;22.60;99.90;;;;;;4967350;28;20050;-35
2023/06/27 11:57:46;;;;;;;9.48;0.55;;;22.80;99.90;;;;;;4967846;28;20058;-34
2023/06/27 12:00:18;;;;;;;3.42;0.38;;;23.10;99.90;;;;;;4971310;28;20146;-35
2023/06/27 12:02:51;;;;;;;;;;;23.20;99.90;;;;;;4972049;28;20544;-34
2023/06/27 12:05:17;;;;;;;1.15;0.30;;;23.20;99.90;;;;;;4969621;28;19997;-34
2023/06/27 12:07:57;;;;;;;4.28;0.43;;;23.40;99.90;;;;;;4969069;28;20059;-35
2023/06/27 12:10:22;;;;;;;3.50;0.40;;;23.40;99.90;;;;;;4967216;28;20081;-35
2023/06/27 12:12:50;;;;;;;1.67;0.57;;;23.50;99.90;;;;;;4972822;28;20497;-35
2023/06/27 12:15:15;;;;;;;1.85;0.32;;;23.50;99.90;;;;;;4976074;28;20133;-35
2023/06/27 12:17:58;;;;;;;1.67;0.40;;;23.40;99.90;;;;;;4969793;28;20067;-35
2023/06/27 12:20:24;;;;;;;3.42;0.40;;;23.30;99.90;;;;;;4969766;28;20050;-34
2023/06/27 12:22:50;;;;;;;2.10;0.60;;;23.20;99.90;;;;;;4967596;28;20129;-35
2023/06/27 12:25:15;;;;;;;2.75;0.40;;;23.20;99.90;;;;;;4975128;28;20478;-35
2023/06/27 12:27:41;;;;;;;5.53;0.50;;;23.20;99.90;;;;;;4972381;28;20097;-35
2023/06/27 12:30:09;;;;;;;2.30;0.60;;;23.30;99.90;;;;;;4972944;28;20054;-35
2023/06/27 12:32:38;;;;;;;2.35;0.65;;;23.30;99.90;;;;;;4975623;28;20559;-35
2023/06/27 12:35:06;;;;;;;1.50;0.30;;;23.40;99.90;;;;;;4982272;28;20054;-35
2023/06/27 12:37:33;;;;;;;3.42;0.40;;;23.30;99.90;;;;;;4976588;28;20053;-35
2023/06/27 12:40:00;;;;;;;2.13;0.40;;;23.20;99.90;;;;;;4969788;28;20567;-35
2023/06/27 12:42:25;;;;;;;1.67;0.30;;;23.10;99.90;;;;;;4969483;28;20133;-35
2023/06/27 12:44:55;;;;;;;4.47;0.50;;;23.10;99.90;;;;;;4964857;28;20070;-34
2023/06/27 12:47:20;;;;;;;3.38;0.43;;;23.30;99.90;;;;;;4966477;28;20420;-35
2023/06/27 12:49:46;;;;;;;1.83;0.35;;;23.50;99.90;;;;;;4968591;28;20054;-34